Terminal Aerodrome Forecast
Issued by NWS

Home | Current Version | Previous Version | Text Only | Print | Product List | Glossary On
Versions: 1 2 3 4 5 6 7 8 9 10 11 12 13 14 15 16 17
000
FTUS42 KTBW 260331 AAA
TAFPGD
TAF AMD
KPGD 260331Z 2604/2624 VRB03KT P6SM VCSH SCT020 BKN060
      TEMPO 2604/2606 -RA BKN020
     FM260800 VRB03KT 3SM BR SCT010
      TEMPO 2608/2612 1SM BR
     FM261300 17005KT P6SM SCT025
     FM261700 22008KT P6SM SCT040=

USA.gov is the U.S. government's official web portal to all federal, state and local government web resources and services.